Terminal Aerodrome Forecast
Issued by NWS

Home | Current Version | Previous Version | Text Only | Print | Product List | Glossary On
Versions: 1 2 3 4 5 6 7 8 9 10 11 12 13 14 15 16 17 18 19 20 21 22 23 24 25 26 27
531
FTUS41 KOKX 270334 AAD
TAFGON
TAF AMD
KGON 270334Z 2704/2724 20015KT P6SM SCT025 OVC050
      TEMPO 2705/2709 BKN025 OVC050
     FM270900 21013G20KT P6SM VCSH BKN020 OVC040
     FM271100 23011G17KT 3SM -SHRA BR BKN010 OVC025
     FM271300 26008KT 5SM -SHRA BR BKN008 OVC012
     FM271700 26008KT P6SM FEW020 SCT070
     FM272100 21007KT P6SM FEW030 SCT070=

USA.gov is the U.S. government's official web portal to all federal, state and local government web resources and services.